sensor_id;sensor_type;location;lat;lon;timestamp;P1;durP1;ratioP1;P2;durP2;ratioP2
34152;SDS011;20426;48.372;10.888;2023-05-23T00:00:00;8.10;;;5.65;;
34152;SDS011;20426;48.372;10.888;2023-05-23T00:00:31;6.82;;;5.43;;
34152;SDS011;20426;48.372;10.888;2023-05-23T00:01:02;9.15;;;5.90;;
34152;SDS011;20426;48.372;10.888;2023-05-23T00:01:36;9.20;;;5.70;;
34152;SDS011;20426;48.372;10.888;2023-05-23T00:02:06;9.60;;;6.18;;
34152;SDS011;20426;48.372;10.888;2023-05-23T00:02:37;8.50;;;5.93;;
34152;SDS011;20426;48.372;10.888;2023-05-23T00:03:09;8.32;;;5.72;;
34152;SDS011;20426;48.372;10.888;2023-05-23T00:03:40;7.18;;;5.22;;
34152;SDS011;20426;48.372;10.888;2023-05-23T00:04:11;9.45;;;5.18;;
34152;SDS011;20426;48.372;10.888;2023-05-23T00:04:47;7.38;;;5.38;;
34152;SDS011;20426;48.372;10.888;2023-05-23T00:05:18;7.45;;;5.60;;
34152;SDS011;20426;48.372;10.888;2023-05-23T00:05:49;7.25;;;5.50;;
34152;SDS011;20426;48.372;10.888;2023-05-23T00:06:20;6.63;;;5.45;;
34152;SDS011;20426;48.372;10.888;2023-05-23T00:06:51;8.85;;;5.80;;
34152;SDS011;20426;48.372;10.888;2023-05-23T00:07:22;8.55;;;5.40;;
34152;SDS011;20426;48.372;10.888;2023-05-23T00:07:53;9.10;;;5.78;;
34152;SDS011;20426;48.372;10.888;2023-05-23T00:08:25;9.75;;;6.38;;
34152;SDS011;20426;48.372;10.888;2023-05-23T00:08:55;7.63;;;5.57;;
34152;SDS011;20426;48.372;10.888;2023-05-23T00:09:26;9.07;;;5.82;;
34152;SDS011;20426;48.372;10.888;2023-05-23T00:09:57;6.68;;;5.30;;
34152;SDS011;20426;48.372;10.888;2023-05-23T00:10:28;6.63;;;5.35;;
34152;SDS011;20426;48.372;10.888;2023-05-23T00:10:58;8.10;;;5.65;;
34152;SDS011;20426;48.372;10.888;2023-05-23T00:11:29;9.13;;;5.60;;
34152;SDS011;20426;48.372;10.888;2023-05-23T00:12:00;7.75;;;6.18;;
34152;SDS011;20426;48.372;10.888;2023-05-23T00:12:31;6.90;;;5.90;;
34152;SDS011;20426;48.372;10.888;2023-05-23T00:13:02;9.32;;;6.20;;
34152;SDS011;20426;48.372;10.888;2023-05-23T00:13:34;9.23;;;5.95;;
34152;SDS011;20426;48.372;10.888;2023-05-23T00:14:05;8.98;;;5.90;;
34152;SDS011;20426;48.372;10.888;2023-05-23T00:14:37;8.15;;;5.75;;
34152;SDS011;20426;48.372;10.888;2023-05-23T00:15:09;7.10;;;5.55;;
34152;SDS011;20426;48.372;10.888;2023-05-23T00:15:43;8.80;;;6.15;;
34152;SDS011;20426;48.372;10.888;2023-05-23T00:16:14;8.98;;;6.03;;
34152;SDS011;20426;48.372;10.888;2023-05-23T00:16:45;9.40;;;6.13;;
34152;SDS011;20426;48.372;10.888;2023-05-23T00:17:18;9.70;;;6.53;;
34152;SDS011;20426;48.372;10.888;2023-05-23T00:17:49;9.50;;;6.13;;
34152;SDS011;20426;48.372;10.888;2023-05-23T00:18:20;10.98;;;7.18;;
34152;SDS011;20426;48.372;10.888;2023-05-23T00:18:53;9.93;;;6.43;;
34152;SDS011;20426;48.372;10.888;2023-05-23T00:19:26;7.97;;;5.90;;
34152;SDS011;20426;48.372;10.888;2023-05-23T00:19:57;7.70;;;6.05;;
34152;SDS011;20426;48.372;10.888;2023-05-23T00:20:28;11.98;;;6.90;;
34152;SDS011;20426;48.372;10.888;2023-05-23T00:20:59;10.18;;;7.00;;
34152;SDS011;20426;48.372;10.888;2023-05-23T00:21:30;9.80;;;6.25;;
34152;SDS011;20426;48.372;10.888;2023-05-23T00:22:02;12.38;;;7.35;;
34152;SDS011;20426;48.372;10.888;2023-05-23T00:22:33;10.73;;;6.88;;
34152;SDS011;20426;48.372;10.888;2023-05-23T00:23:05;8.65;;;6.38;;
34152;SDS011;20426;48.372;10.888;2023-05-23T00:23:38;8.63;;;6.03;;
34152;SDS011;20426;48.372;10.888;2023-05-23T00:24:11;8.43;;;6.28;;
34152;SDS011;20426;48.372;10.888;2023-05-23T00:24:42;12.25;;;6.75;;
34152;SDS011;20426;48.372;10.888;2023-05-23T00:25:13;9.23;;;6.20;;
34152;SDS011;20426;48.372;10.888;2023-05-23T00:25:44;8.25;;;6.53;;
34152;SDS011;20426;48.372;10.888;2023-05-23T00:26:21;11.57;;;6.13;;
34152;SDS011;20426;48.372;10.888;2023-05-23T00:26:53;11.07;;;7.03;;
34152;SDS011;20426;48.372;10.888;2023-05-23T00:27:23;10.68;;;6.50;;
34152;SDS011;20426;48.372;10.888;2023-05-23T00:27:54;8.98;;;6.10;;
34152;SDS011;20426;48.372;10.888;2023-05-23T00:28:25;10.63;;;7.05;;
34152;SDS011;20426;48.372;10.888;2023-05-23T00:28:56;10.18;;;6.35;;
34152;SDS011;20426;48.372;10.888;2023-05-23T00:29:27;11.20;;;6.47;;
34152;SDS011;20426;48.372;10.888;2023-05-23T00:29:58;7.95;;;5.60;;
34152;SDS011;20426;48.372;10.888;2023-05-23T00:30:29;9.13;;;6.47;;
34152;SDS011;20426;48.372;10.888;2023-05-23T00:31:01;9.05;;;6.28;;
34152;SDS011;20426;48.372;10.888;2023-05-23T00:31:31;10.63;;;6.25;;
34152;SDS011;20426;48.372;10.888;2023-05-23T00:32:02;7.95;;;5.97;;
34152;SDS011;20426;48.372;10.888;2023-05-23T00:32:33;10.05;;;6.20;;
34152;SDS011;20426;48.372;10.888;2023-05-23T00:33:04;12.35;;;7.00;;
34152;SDS011;20426;48.372;10.888;2023-05-23T00:33:35;9.55;;;6.47;;
34152;SDS011;20426;48.372;10.888;2023-05-23T00:34:06;12.93;;;5.80;;
34152;SDS011;20426;48.372;10.888;2023-05-23T00:34:36;6.78;;;5.70;;
34152;SDS011;20426;48.372;10.888;2023-05-23T00:35:07;9.95;;;6.63;;
34152;SDS011;20426;48.372;10.888;2023-05-23T00:35:39;9.77;;;6.22;;
34152;SDS011;20426;48.372;10.888;2023-05-23T00:36:11;8.55;;;5.95;;
34152;SDS011;20426;48.372;10.888;2023-05-23T00:36:42;10.23;;;6.45;;
34152;SDS011;20426;48.372;10.888;2023-05-23T00:37:16;8.30;;;5.50;;
34152;SDS011;20426;48.372;10.888;2023-05-23T00:37:47;9.57;;;6.50;;
34152;SDS011;20426;48.372;10.888;2023-05-23T00:38:19;8.63;;;6.43;;
34152;SDS011;20426;48.372;10.888;2023-05-23T00:38:50;8.20;;;6.00;;
34152;SDS011;20426;48.372;10.888;2023-05-23T00:39:22;8.85;;;5.95;;
34152;SDS011;20426;48.372;10.888;2023-05-23T00:39:52;7.82;;;6.10;;
34152;SDS011;20426;48.372;10.888;2023-05-23T00:40:23;9.00;;;5.97;;
34152;SDS011;20426;48.372;10.888;2023-05-23T00:40:54;12.27;;;6.47;;
34152;SDS011;20426;48.372;10.888;2023-05-23T00:41:24;10.02;;;6.80;;
34152;SDS011;20426;48.372;10.888;2023-05-23T00:41:56;10.68;;;6.03;;
34152;SDS011;20426;48.372;10.888;2023-05-23T00:42:27;9.20;;;6.28;;
34152;SDS011;20426;48.372;10.888;2023-05-23T00:42:57;10.00;;;6.65;;
34152;SDS011;20426;48.372;10.888;2023-05-23T00:43:28;6.47;;;5.38;;
34152;SDS011;20426;48.372;10.888;2023-05-23T00:43:58;9.27;;;6.70;;
34152;SDS011;20426;48.372;10.888;2023-05-23T00:44:29;8.98;;;6.00;;
34152;SDS011;20426;48.372;10.888;2023-05-23T00:45:00;7.35;;;5.95;;
34152;SDS011;20426;48.372;10.888;2023-05-23T00:45:31;7.78;;;5.88;;
34152;SDS011;20426;48.372;10.888;2023-05-23T00:46:01;9.20;;;6.55;;
34152;SDS011;20426;48.372;10.888;2023-05-23T00:46:32;8.35;;;6.30;;
34152;SDS011;20426;48.372;10.888;2023-05-23T00:47:04;10.13;;;6.50;;
34152;SDS011;20426;48.372;10.888;2023-05-23T00:47:37;7.63;;;5.95;;
34152;SDS011;20426;48.372;10.888;2023-05-23T00:48:08;9.05;;;6.50;;
34152;SDS011;20426;48.372;10.888;2023-05-23T00:48:40;12.05;;;6.05;;
34152;SDS011;20426;48.372;10.888;2023-05-23T00:49:12;9.05;;;6.25;;
34152;SDS011;20426;48.372;10.888;2023-05-23T00:49:43;7.50;;;6.25;;
34152;SDS011;20426;48.372;10.888;2023-05-23T00:50:14;8.52;;;6.30;;
34152;SDS011;20426;48.372;10.888;2023-05-23T00:50:45;7.78;;;5.60;;
34152;SDS011;20426;48.372;10.888;2023-05-23T00:51:16;7.88;;;5.85;;
34152;SDS011;20426;48.372;10.888;2023-05-23T00:51:47;7.93;;;5.78;;
34152;SDS011;20426;48.372;10.888;2023-05-23T00:52:21;8.40;;;6.43;;
34152;SDS011;20426;48.372;10.888;2023-05-23T00:52:51;8.70;;;5.85;;
34152;SDS011;20426;48.372;10.888;2023-05-23T00:53:22;8.98;;;6.25;;
34152;SDS011;20426;48.372;10.888;2023-05-23T00:53:54;7.85;;;6.15;;
34152;SDS011;20426;48.372;10.888;2023-05-23T00:54:26;7.90;;;5.57;;
34152;SDS011;20426;48.372;10.888;2023-05-23T00:55:00;8.98;;;6.05;;
34152;SDS011;20426;48.372;10.888;2023-05-23T00:55:31;7.45;;;6.00;;
34152;SDS011;20426;48.372;10.888;2023-05-23T00:56:02;9.82;;;6.10;;
34152;SDS011;20426;48.372;10.888;2023-05-23T00:56:33;8.15;;;5.72;;
34152;SDS011;20426;48.372;10.888;2023-05-23T00:57:05;10.90;;;6.60;;
34152;SDS011;20426;48.372;10.888;2023-05-23T00:57:36;8.35;;;6.38;;
34152;SDS011;20426;48.372;10.888;2023-05-23T00:58:10;9.32;;;6.45;;
34152;SDS011;20426;48.372;10.888;2023-05-23T00:58:44;7.63;;;6.22;;
34152;SDS011;20426;48.372;10.888;2023-05-23T00:59:14;8.07;;;5.95;;
34152;SDS011;20426;48.372;10.888;2023-05-23T00:59:46;10.27;;;5.72;;
34152;SDS011;20426;48.372;10.888;2023-05-23T01:00:17;9.27;;;6.55;;
34152;SDS011;20426;48.372;10.888;2023-05-23T01:00:49;8.55;;;6.47;;
34152;SDS011;20426;48.372;10.888;2023-05-23T01:01:23;10.68;;;6.65;;
34152;SDS011;20426;48.372;10.888;2023-05-23T01:01:55;8.60;;;5.82;;
34152;SDS011;20426;48.372;10.888;2023-05-23T01:02:27;9.48;;;6.32;;
34152;SDS011;20426;48.372;10.888;2023-05-23T01:03:01;7.78;;;5.72;;
34152;SDS011;20426;48.372;10.888;2023-05-23T01:03:32;8.95;;;6.53;;
34152;SDS011;20426;48.372;10.888;2023-05-23T01:04:02;9.02;;;6.72;;
34152;SDS011;20426;48.372;10.888;2023-05-23T01:04:34;14.10;;;6.13;;
34152;SDS011;20426;48.372;10.888;2023-05-23T01:05:06;9.05;;;6.38;;
34152;SDS011;20426;48.372;10.888;2023-05-23T01:05:37;11.55;;;6.43;;
34152;SDS011;20426;48.372;10.888;2023-05-23T01:06:09;10.98;;;6.80;;
34152;SDS011;20426;48.372;10.888;2023-05-23T01:06:41;13.27;;;7.10;;
34152;SDS011;20426;48.372;10.888;2023-05-23T01:07:15;10.55;;;6.78;;
34152;SDS011;20426;48.372;10.888;2023-05-23T01:07:47;10.23;;;7.00;;
34152;SDS011;20426;48.372;10.888;2023-05-23T01:08:18;12.38;;;6.00;;
34152;SDS011;20426;48.372;10.888;2023-05-23T01:08:50;9.80;;;6.60;;
34152;SDS011;20426;48.372;10.888;2023-05-23T01:09:22;9.73;;;6.80;;
34152;SDS011;20426;48.372;10.888;2023-05-23T01:09:54;9.55;;;6.22;;
34152;SDS011;20426;48.372;10.888;2023-05-23T01:10:25;11.57;;;7.03;;
34152;SDS011;20426;48.372;10.888;2023-05-23T01:10:58;8.93;;;5.95;;
34152;SDS011;20426;48.372;10.888;2023-05-23T01:11:44;10.20;;;6.15;;
34152;SDS011;20426;48.372;10.888;2023-05-23T01:13:16;9.10;;;6.38;;
34152;SDS011;20426;48.372;10.888;2023-05-23T01:14:10;10.82;;;6.55;;
34152;SDS011;20426;48.372;10.888;2023-05-23T01:14:50;9.02;;;6.78;;
34152;SDS011;20426;48.372;10.888;2023-05-23T01:16:22;10.88;;;7.00;;
34152;SDS011;20426;48.372;10.888;2023-05-23T01:16:56;11.75;;;7.40;;
34152;SDS011;20426;48.372;10.888;2023-05-23T01:17:39;10.93;;;7.82;;
34152;SDS011;20426;48.372;10.888;2023-05-23T01:18:29;10.00;;;7.35;;
34152;SDS011;20426;48.372;10.888;2023-05-23T01:20:17;12.27;;;6.75;;
34152;SDS011;20426;48.372;10.888;2023-05-23T01:21:24;11.05;;;7.43;;
34152;SDS011;20426;48.372;10.888;2023-05-23T01:21:56;11.35;;;7.22;;
34152;SDS011;20426;48.372;10.888;2023-05-23T01:26:12;10.90;;;7.22;;
34152;SDS011;20426;48.372;10.888;2023-05-23T01:27:07;9.90;;;6.65;;
34152;SDS011;20426;48.372;10.888;2023-05-23T01:28:02;11.70;;;7.22;;
34152;SDS011;20426;48.372;10.888;2023-05-23T01:28:36;9.15;;;6.00;;
34152;SDS011;20426;48.372;10.888;2023-05-23T01:29:12;10.40;;;7.45;;
34152;SDS011;20426;48.372;10.888;2023-05-23T01:29:48;9.95;;;6.60;;
34152;SDS011;20426;48.372;10.888;2023-05-23T01:30:25;9.65;;;6.45;;
34152;SDS011;20426;48.372;10.888;2023-05-23T01:30:59;9.30;;;7.28;;
34152;SDS011;20426;48.372;10.888;2023-05-23T01:31:33;10.18;;;6.63;;
34152;SDS011;20426;48.372;10.888;2023-05-23T01:32:08;8.88;;;6.38;;
34152;SDS011;20426;48.372;10.888;2023-05-23T01:32:41;12.07;;;7.32;;
34152;SDS011;20426;48.372;10.888;2023-05-23T01:33:13;9.40;;;7.25;;
34152;SDS011;20426;48.372;10.888;2023-05-23T01:33:46;11.23;;;7.38;;
34152;SDS011;20426;48.372;10.888;2023-05-23T01:34:19;8.75;;;6.60;;
34152;SDS011;20426;48.372;10.888;2023-05-23T01:34:51;8.50;;;6.57;;
34152;SDS011;20426;48.372;10.888;2023-05-23T01:35:24;9.70;;;6.75;;
34152;SDS011;20426;48.372;10.888;2023-05-23T01:35:56;9.43;;;6.35;;
34152;SDS011;20426;48.372;10.888;2023-05-23T01:36:31;12.60;;;7.32;;
34152;SDS011;20426;48.372;10.888;2023-05-23T01:37:07;9.88;;;6.82;;
34152;SDS011;20426;48.372;10.888;2023-05-23T01:37:43;9.40;;;6.63;;
34152;SDS011;20426;48.372;10.888;2023-05-23T01:38:14;12.43;;;7.10;;
34152;SDS011;20426;48.372;10.888;2023-05-23T01:38:45;9.20;;;6.80;;
34152;SDS011;20426;48.372;10.888;2023-05-23T01:39:15;9.25;;;7.22;;
34152;SDS011;20426;48.372;10.888;2023-05-23T01:39:46;8.55;;;7.05;;
34152;SDS011;20426;48.372;10.888;2023-05-23T01:40:17;11.05;;;6.68;;
34152;SDS011;20426;48.372;10.888;2023-05-23T01:40:48;12.57;;;7.63;;
34152;SDS011;20426;48.372;10.888;2023-05-23T01:41:18;9.27;;;6.68;;
34152;SDS011;20426;48.372;10.888;2023-05-23T01:41:49;9.20;;;6.65;;
34152;SDS011;20426;48.372;10.888;2023-05-23T01:42:21;9.88;;;7.05;;
34152;SDS011;20426;48.372;10.888;2023-05-23T01:42:52;9.15;;;6.90;;
34152;SDS011;20426;48.372;10.888;2023-05-23T01:43:26;10.88;;;7.05;;
34152;SDS011;20426;48.372;10.888;2023-05-23T01:43:57;9.73;;;6.88;;
34152;SDS011;20426;48.372;10.888;2023-05-23T01:44:28;11.48;;;7.75;;
34152;SDS011;20426;48.372;10.888;2023-05-23T01:44:59;11.70;;;7.88;;
34152;SDS011;20426;48.372;10.888;2023-05-23T01:45:29;11.43;;;7.40;;
34152;SDS011;20426;48.372;10.888;2023-05-23T01:46:01;9.43;;;7.43;;
34152;SDS011;20426;48.372;10.888;2023-05-23T01:46:33;9.93;;;7.10;;
34152;SDS011;20426;48.372;10.888;2023-05-23T01:47:08;10.20;;;7.15;;
34152;SDS011;20426;48.372;10.888;2023-05-23T01:47:39;11.93;;;7.28;;
34152;SDS011;20426;48.372;10.888;2023-05-23T01:48:11;8.63;;;7.03;;
34152;SDS011;20426;48.372;10.888;2023-05-23T01:48:44;9.95;;;6.88;;
34152;SDS011;20426;48.372;10.888;2023-05-23T01:49:16;12.10;;;7.82;;
34152;SDS011;20426;48.372;10.888;2023-05-23T01:49:48;12.57;;;7.63;;
34152;SDS011;20426;48.372;10.888;2023-05-23T01:50:21;11.05;;;7.25;;
34152;SDS011;20426;48.372;10.888;2023-05-23T01:50:52;11.48;;;7.55;;
34152;SDS011;20426;48.372;10.888;2023-05-23T01:51:24;9.88;;;7.25;;
34152;SDS011;20426;48.372;10.888;2023-05-23T01:51:57;9.18;;;6.90;;
34152;SDS011;20426;48.372;10.888;2023-05-23T01:52:29;10.32;;;6.85;;
34152;SDS011;20426;48.372;10.888;2023-05-23T01:52:59;9.00;;;7.10;;
34152;SDS011;20426;48.372;10.888;2023-05-23T01:53:31;12.52;;;7.75;;
34152;SDS011;20426;48.372;10.888;2023-05-23T01:54:03;10.07;;;6.95;;
34152;SDS011;20426;48.372;10.888;2023-05-23T01:54:35;9.27;;;7.10;;
34152;SDS011;20426;48.372;10.888;2023-05-23T01:55:06;11.55;;;7.40;;
34152;SDS011;20426;48.372;10.888;2023-05-23T01:55:39;9.80;;;7.78;;
34152;SDS011;20426;48.372;10.888;2023-05-23T01:56:11;11.45;;;7.72;;
34152;SDS011;20426;48.372;10.888;2023-05-23T01:56:42;10.80;;;7.28;;
34152;SDS011;20426;48.372;10.888;2023-05-23T01:57:14;10.65;;;7.85;;
34152;SDS011;20426;48.372;10.888;2023-05-23T01:57:45;11.05;;;7.20;;
34152;SDS011;20426;48.372;10.888;2023-05-23T01:58:19;9.40;;;7.63;;
34152;SDS011;20426;48.372;10.888;2023-05-23T01:58:50;10.80;;;7.28;;
34152;SDS011;20426;48.372;10.888;2023-05-23T01:59:21;11.65;;;7.75;;
34152;SDS011;20426;48.372;10.888;2023-05-23T01:59:52;9.73;;;7.43;;
34152;SDS011;20426;48.372;10.888;2023-05-23T02:00:23;10.30;;;7.38;;
34152;SDS011;20426;48.372;10.888;2023-05-23T02:00:54;10.48;;;7.90;;
34152;SDS011;20426;48.372;10.888;2023-05-23T02:01:25;10.57;;;7.28;;
34152;SDS011;20426;48.372;10.888;2023-05-23T02:01:56;12.93;;;7.43;;
34152;SDS011;20426;48.372;10.888;2023-05-23T02:02:27;10.10;;;7.22;;
34152;SDS011;20426;48.372;10.888;2023-05-23T02:02:58;10.48;;;7.50;;
34152;SDS011;20426;48.372;10.888;2023-05-23T02:03:29;10.85;;;7.25;;
34152;SDS011;20426;48.372;10.888;2023-05-23T02:04:00;10.32;;;7.53;;
34152;SDS011;20426;48.372;10.888;2023-05-23T02:04:30;10.60;;;7.40;;
34152;SDS011;20426;48.372;10.888;2023-05-23T02:05:01;10.70;;;7.35;;
34152;SDS011;20426;48.372;10.888;2023-05-23T02:05:32;11.02;;;7.63;;
34152;SDS011;20426;48.372;10.888;2023-05-23T02:06:03;9.18;;;6.60;;
34152;SDS011;20426;48.372;10.888;2023-05-23T02:06:33;9.93;;;7.15;;
34152;SDS011;20426;48.372;10.888;2023-05-23T02:07:04;10.43;;;7.78;;
34152;SDS011;20426;48.372;10.888;2023-05-23T02:07:35;10.13;;;6.50;;
34152;SDS011;20426;48.372;10.888;2023-05-23T02:08:06;10.30;;;6.72;;
34152;SDS011;20426;48.372;10.888;2023-05-23T02:08:37;10.45;;;7.30;;
34152;SDS011;20426;48.372;10.888;2023-05-23T02:09:07;11.90;;;7.47;;
34152;SDS011;20426;48.372;10.888;2023-05-23T02:09:39;11.50;;;8.13;;
34152;SDS011;20426;48.372;10.888;2023-05-23T02:10:09;11.07;;;7.30;;
34152;SDS011;20426;48.372;10.888;2023-05-23T02:10:40;10.50;;;7.28;;
34152;SDS011;20426;48.372;10.888;2023-05-23T02:11:11;10.52;;;7.43;;
34152;SDS011;20426;48.372;10.888;2023-05-23T02:11:41;9.55;;;6.82;;
34152;SDS011;20426;48.372;10.888;2023-05-23T02:12:12;11.95;;;7.65;;
34152;SDS011;20426;48.372;10.888;2023-05-23T02:12:43;12.73;;;8.00;;
34152;SDS011;20426;48.372;10.888;2023-05-23T02:13:13;10.73;;;7.95;;
34152;SDS011;20426;48.372;10.888;2023-05-23T02:13:44;11.85;;;8.13;;
34152;SDS011;20426;48.372;10.888;2023-05-23T02:14:15;11.95;;;8.10;;
34152;SDS011;20426;48.372;10.888;2023-05-23T02:14:48;11.43;;;7.90;;
34152;SDS011;20426;48.372;10.888;2023-05-23T02:15:21;10.77;;;7.10;;
34152;SDS011;20426;48.372;10.888;2023-05-23T02:15:51;10.60;;;7.78;;
34152;SDS011;20426;48.372;10.888;2023-05-23T02:16:22;13.18;;;7.45;;
34152;SDS011;20426;48.372;10.888;2023-05-23T02:16:55;10.80;;;7.47;;
34152;SDS011;20426;48.372;10.888;2023-05-23T02:17:25;10.65;;;7.78;;
34152;SDS011;20426;48.372;10.888;2023-05-23T02:17:56;12.63;;;7.60;;
34152;SDS011;20426;48.372;10.888;2023-05-23T02:18:27;13.10;;;8.00;;
34152;SDS011;20426;48.372;10.888;2023-05-23T02:18:58;12.40;;;8.00;;
34152;SDS011;20426;48.372;10.888;2023-05-23T02:19:31;13.32;;;8.85;;
34152;SDS011;20426;48.372;10.888;2023-05-23T02:20:01;11.90;;;8.18;;
34152;SDS011;20426;48.372;10.888;2023-05-23T02:20:32;10.90;;;7.28;;
34152;SDS011;20426;48.372;10.888;2023-05-23T02:21:04;11.25;;;7.38;;
34152;SDS011;20426;48.372;10.888;2023-05-23T02:21:36;11.95;;;7.80;;
34152;SDS011;20426;48.372;10.888;2023-05-23T02:22:07;11.45;;;7.68;;
34152;SDS011;20426;48.372;10.888;2023-05-23T02:22:38;11.15;;;8.15;;
34152;SDS011;20426;48.372;10.888;2023-05-23T02:23:08;12.07;;;8.05;;
34152;SDS011;20426;48.372;10.888;2023-05-23T02:23:39;11.15;;;8.02;;
34152;SDS011;20426;48.372;10.888;2023-05-23T02:24:10;11.98;;;8.02;;
34152;SDS011;20426;48.372;10.888;2023-05-23T02:24:40;12.30;;;8.63;;
34152;SDS011;20426;48.372;10.888;2023-05-23T02:25:11;11.05;;;7.97;;
34152;SDS011;20426;48.372;10.888;2023-05-23T02:25:42;12.05;;;8.02;;
34152;SDS011;20426;48.372;10.888;2023-05-23T02:26:13;9.27;;;7.35;;
34152;SDS011;20426;48.372;10.888;2023-05-23T02:26:43;11.40;;;8.27;;
34152;SDS011;20426;48.372;10.888;2023-05-23T02:27:14;11.38;;;8.13;;
34152;SDS011;20426;48.372;10.888;2023-05-23T02:27:45;11.50;;;8.05;;
34152;SDS011;20426;48.372;10.888;2023-05-23T02:28:15;10.90;;;8.00;;
34152;SDS011;20426;48.372;10.888;2023-05-23T02:28:46;10.95;;;8.00;;
34152;SDS011;20426;48.372;10.888;2023-05-23T02:29:17;12.30;;;8.27;;
34152;SDS011;20426;48.372;10.888;2023-05-23T02:29:47;11.95;;;8.32;;
34152;SDS011;20426;48.372;10.888;2023-05-23T02:30:18;12.15;;;8.35;;
34152;SDS011;20426;48.372;10.888;2023-05-23T02:30:49;14.95;;;8.10;;
34152;SDS011;20426;48.372;10.888;2023-05-23T02:31:19;11.63;;;7.85;;
34152;SDS011;20426;48.372;10.888;2023-05-23T02:31:50;13.90;;;8.25;;
34152;SDS011;20426;48.372;10.888;2023-05-23T02:32:21;11.60;;;7.97;;
34152;SDS011;20426;48.372;10.888;2023-05-23T02:32:51;10.60;;;8.05;;
34152;SDS011;20426;48.372;10.888;2023-05-23T02:33:22;11.85;;;8.35;;
34152;SDS011;20426;48.372;10.888;2023-05-23T02:33:53;12.85;;;8.35;;
34152;SDS011;20426;48.372;10.888;2023-05-23T02:34:23;11.00;;;8.05;;
34152;SDS011;20426;48.372;10.888;2023-05-23T02:34:54;12.40;;;8.23;;
34152;SDS011;20426;48.372;10.888;2023-05-23T02:35:25;10.90;;;7.70;;
34152;SDS011;20426;48.372;10.888;2023-05-23T02:35:56;9.73;;;6.90;;
34152;SDS011;20426;48.372;10.888;2023-05-23T02:36:26;10.98;;;8.00;;
34152;SDS011;20426;48.372;10.888;2023-05-23T02:36:57;11.57;;;8.52;;
34152;SDS011;20426;48.372;10.888;2023-05-23T02:37:28;9.57;;;7.70;;
34152;SDS011;20426;48.372;10.888;2023-05-23T02:37:59;10.70;;;7.85;;
34152;SDS011;20426;48.372;10.888;2023-05-23T02:38:30;14.73;;;8.70;;
34152;SDS011;20426;48.372;10.888;2023-05-23T02:39:00;12.57;;;8.88;;
34152;SDS011;20426;48.372;10.888;2023-05-23T02:39:31;12.93;;;7.93;;
34152;SDS011;20426;48.372;10.888;2023-05-23T02:40:04;10.95;;;7.70;;
34152;SDS011;20426;48.372;10.888;2023-05-23T02:40:36;13.93;;;8.68;;
34152;SDS011;20426;48.372;10.888;2023-05-23T02:41:07;12.90;;;7.88;;
34152;SDS011;20426;48.372;10.888;2023-05-23T02:41:38;10.55;;;8.05;;
34152;SDS011;20426;48.372;10.888;2023-05-23T02:42:08;11.18;;;7.72;;
34152;SDS011;20426;48.372;10.888;2023-05-23T02:42:39;11.77;;;8.02;;
34152;SDS011;20426;48.372;10.888;2023-05-23T02:43:10;12.02;;;8.70;;
34152;SDS011;20426;48.372;10.888;2023-05-23T02:43:40;11.23;;;8.55;;
34152;SDS011;20426;48.372;10.888;2023-05-23T02:44:11;10.20;;;7.88;;
34152;SDS011;20426;48.372;10.888;2023-05-23T02:44:42;10.30;;;7.88;;
34152;SDS011;20426;48.372;10.888;2023-05-23T02:45:12;12.52;;;8.80;;
34152;SDS011;20426;48.372;10.888;2023-05-23T02:45:43;13.88;;;8.63;;
34152;SDS011;20426;48.372;10.888;2023-05-23T02:46:14;13.88;;;8.50;;
34152;SDS011;20426;48.372;10.888;2023-05-23T02:46:44;14.55;;;9.00;;
34152;SDS011;20426;48.372;10.888;2023-05-23T02:47:15;12.90;;;9.05;;
34152;SDS011;20426;48.372;10.888;2023-05-23T02:47:46;11.88;;;8.50;;
34152;SDS011;20426;48.372;10.888;2023-05-23T02:48:16;10.88;;;8.25;;
34152;SDS011;20426;48.372;10.888;2023-05-23T02:48:47;10.82;;;8.27;;
34152;SDS011;20426;48.372;10.888;2023-05-23T02:49:18;12.15;;;8.20;;
34152;SDS011;20426;48.372;10.888;2023-05-23T02:49:49;12.38;;;7.80;;
34152;SDS011;20426;48.372;10.888;2023-05-23T02:50:20;12.13;;;8.27;;
34152;SDS011;20426;48.372;10.888;2023-05-23T02:50:50;11.50;;;8.38;;
34152;SDS011;20426;48.372;10.888;2023-05-23T02:51:21;10.23;;;7.57;;
34152;SDS011;20426;48.372;10.888;2023-05-23T02:51:52;14.80;;;8.15;;
34152;SDS011;20426;48.372;10.888;2023-05-23T02:52:23;10.48;;;8.05;;
34152;SDS011;20426;48.372;10.888;2023-05-23T02:52:54;11.52;;;8.35;;
34152;SDS011;20426;48.372;10.888;2023-05-23T02:53:25;12.23;;;8.52;;
34152;SDS011;20426;48.372;10.888;2023-05-23T02:53:56;11.18;;;8.30;;
34152;SDS011;20426;48.372;10.888;2023-05-23T02:54:26;11.30;;;8.75;;
34152;SDS011;20426;48.372;10.888;2023-05-23T02:54:57;13.52;;;8.90;;
34152;SDS011;20426;48.372;10.888;2023-05-23T02:55:28;11.95;;;8.07;;
34152;SDS011;20426;48.372;10.888;2023-05-23T02:55:58;12.13;;;8.15;;
34152;SDS011;20426;48.372;10.888;2023-05-23T02:56:29;12.13;;;8.35;;
34152;SDS011;20426;48.372;10.888;2023-05-23T02:57:00;14.30;;;8.32;;
34152;SDS011;20426;48.372;10.888;2023-05-23T02:57:30;12.77;;;8.23;;
34152;SDS011;20426;48.372;10.888;2023-05-23T02:58:01;12.63;;;8.20;;
34152;SDS011;20426;48.372;10.888;2023-05-23T02:58:34;11.98;;;8.88;;
34152;SDS011;20426;48.372;10.888;2023-05-23T02:59:05;14.52;;;8.82;;
34152;SDS011;20426;48.372;10.888;2023-05-23T02:59:36;13.52;;;8.40;;
34152;SDS011;20426;48.372;10.888;2023-05-23T03:00:07;11.85;;;8.10;;
34152;SDS011;20426;48.372;10.888;2023-05-23T03:00:39;13.27;;;8.38;;
34152;SDS011;20426;48.372;10.888;2023-05-23T03:01:12;14.77;;;8.13;;
34152;SDS011;20426;48.372;10.888;2023-05-23T03:01:42;11.57;;;8.45;;
34152;SDS011;20426;48.372;10.888;2023-05-23T03:02:13;12.63;;;8.68;;
34152;SDS011;20426;48.372;10.888;2023-05-23T03:02:44;10.07;;;7.47;;
34152;SDS011;20426;48.372;10.888;2023-05-23T03:03:15;12.00;;;8.27;;
34152;SDS011;20426;48.372;10.888;2023-05-23T03:03:46;14.43;;;9.35;;
34152;SDS011;20426;48.372;10.888;2023-05-23T03:04:17;12.43;;;8.38;;
34152;SDS011;20426;48.372;10.888;2023-05-23T03:04:47;13.57;;;8.65;;
34152;SDS011;20426;48.372;10.888;2023-05-23T03:05:19;13.48;;;8.45;;
34152;SDS011;20426;48.372;10.888;2023-05-23T03:05:50;11.68;;;7.97;;
34152;SDS011;20426;48.372;10.888;2023-05-23T03:06:21;11.32;;;8.30;;
34152;SDS011;20426;48.372;10.888;2023-05-23T03:06:52;12.27;;;8.57;;
34152;SDS011;20426;48.372;10.888;2023-05-23T03:07:25;11.13;;;8.25;;
34152;SDS011;20426;48.372;10.888;2023-05-23T03:07:56;13.68;;;8.07;;
34152;SDS011;20426;48.372;10.888;2023-05-23T03:08:27;12.20;;;8.23;;
34152;SDS011;20426;48.372;10.888;2023-05-23T03:08:58;11.82;;;8.05;;
34152;SDS011;20426;48.372;10.888;2023-05-23T03:09:30;11.23;;;8.05;;
34152;SDS011;20426;48.372;10.888;2023-05-23T03:10:01;12.52;;;8.90;;
34152;SDS011;20426;48.372;10.888;2023-05-23T03:10:31;15.20;;;9.13;;
34152;SDS011;20426;48.372;10.888;2023-05-23T03:11:02;13.57;;;8.90;;
34152;SDS011;20426;48.372;10.888;2023-05-23T03:11:33;11.98;;;8.23;;
34152;SDS011;20426;48.372;10.888;2023-05-23T03:12:03;13.68;;;8.40;;
34152;SDS011;20426;48.372;10.888;2023-05-23T03:12:35;13.27;;;8.25;;
34152;SDS011;20426;48.372;10.888;2023-05-23T03:13:06;11.70;;;7.88;;
34152;SDS011;20426;48.372;10.888;2023-05-23T03:13:37;11.30;;;8.45;;
34152;SDS011;20426;48.372;10.888;2023-05-23T03:14:08;13.35;;;8.48;;